.
WxDataArchive / Data Records for 2011-04-17
2011-04-16 April 2011 2011-04-18

Data Records for Sunday, 17 April 2011

Time	Temp	Chill	HIndex	Humid	Dewpt	 Wind 	HiWind	WindDir	Rain 	Barom 
-----	----	-----	------	-----	-----	------	------	-------	-----	----- 
00:00	38.5	38.5	38.5	77	31.9	2	5	248	0.00	29.725 
00:05	38.5	38.5	38.5	77	31.9	3	6	248	0.00	29.725 
00:10	38.5	38.5	38.5	77	31.9	3	6	248	0.00	29.725 
00:15	38.5	38.5	38.5	77	31.9	2	6	248	0.00	29.729 
00:20	38.6	38.6	38.6	76	31.7	2	6	248	0.00	29.729 
00:25	38.6	38.6	38.6	76	31.7	3	6	248	0.00	29.729 
00:30	38.8	38.8	38.8	76	31.9	3	6	248	0.00	29.730 
00:35	38.8	38.8	38.8	76	31.9	2	4	248	0.00	29.730 
00:40	38.8	38.8	38.8	76	31.9	3	6	248	0.00	29.730 
00:45	38.8	38.8	38.8	76	31.9	3	9	248	0.00	29.730 
00:50	38.9	38.9	38.9	76	32.0	3	9	248	0.00	29.730 
00:55	38.9	38.9	38.9	76	32.0	2	5	248	0.00	29.730 
01:00	38.9	38.9	38.9	76	32.0	3	7	248	0.00	29.728 
01:05	38.9	36.0	38.9	76	32.0	4	9	248	0.00	29.728 
01:10	39.1	39.1	39.1	75	31.9	3	6	270	0.00	29.728 
01:15	39.1	39.1	39.1	75	31.9	3	6	248	0.00	29.726 
01:20	39.1	39.1	39.1	74	31.5	3	6	248	0.00	29.726 
01:25	39.2	39.2	39.2	74	31.6	3	7	248	0.00	29.726 
01:30	39.2	39.2	39.2	73	31.3	3	7	248	0.00	29.730 
01:35	39.2	39.2	39.2	72	30.9	3	6	270	0.00	29.730 
01:40	39.2	39.2	39.2	71	30.6	3	7	248	0.00	29.730 
01:45	39.2	39.2	39.2	70	30.3	3	7	270	0.00	29.730 
01:50	39.2	39.2	39.2	70	30.3	3	9	248	0.00	29.730 
01:55	39.3	36.5	39.3	69	30.0	4	6	270	0.00	29.730 
02:00	39.3	39.3	39.3	69	30.0	3	7	270	0.00	29.731 
02:05	39.3	39.3	39.3	69	30.0	2	5	225	0.00	29.731 
02:10	39.2	39.2	39.2	70	30.3	2	4	248	0.00	29.731 
02:15	39.2	39.2	39.2	71	30.6	2	5	248	0.00	29.733 
02:20	39.2	39.2	39.2	70	30.3	3	6	248	0.00	29.733 
02:25	39.3	39.3	39.3	70	30.3	3	7	270	0.00	29.733 
02:30	39.3	39.3	39.3	69	30.0	3	8	248	0.00	29.733 
02:35	39.5	39.5	39.5	69	30.2	3	6	248	0.00	29.733 
02:40	39.5	39.5	39.5	69	30.2	3	6	248	0.00	29.733 
02:45	39.5	39.5	39.5	68	29.8	3	7	270	0.00	29.733 
02:50	39.5	39.5	39.5	68	29.8	2	4	248	0.00	29.733 
02:55	39.5	39.5	39.5	68	29.8	2	6	248	0.00	29.733 
03:00	39.5	39.5	39.5	69	30.2	3	9	248	0.00	29.734 
03:05	39.5	39.5	39.5	69	30.2	2	5	248	0.00	29.734 
03:10	39.5	39.5	39.5	69	30.2	3	6	248	0.00	29.734 
03:15	39.5	39.5	39.5	71	30.9	3	5	248	0.00	29.732 
03:20	39.3	39.3	39.3	71	30.7	3	11	248	0.00	29.732 
03:25	39.3	39.3	39.3	72	31.0	3	10	225	0.00	29.732 
03:30	39.5	39.5	39.5	73	31.6	3	10	248	0.00	29.734 
03:35	39.5	39.5	39.5	73	31.6	3	7	248	0.00	29.734 
03:40	39.5	39.5	39.5	74	31.9	3	10	270	0.00	29.734 
03:45	39.5	39.5	39.5	74	31.9	3	7	248	0.00	29.736 
03:50	39.5	39.5	39.5	75	32.2	3	6	248	0.00	29.736 
03:55	39.5	39.5	39.5	75	32.2	3	5	248	0.00	29.736 
04:00	39.6	39.6	39.6	76	32.7	2	10	248	0.00	29.734 
04:05	39.6	39.6	39.6	76	32.7	2	5	248	0.00	29.734 
04:10	39.6	39.6	39.6	77	33.0	2	4	248	0.00	29.734 
04:15	39.6	39.6	39.6	77	33.0	3	10	248	0.00	29.736 
04:20	39.8	37.1	39.8	77	33.2	4	9	248	0.00	29.736 
04:25	39.8	39.8	39.8	77	33.2	2	5	248	0.00	29.736 
04:30	39.8	39.8	39.8	77	33.2	2	6	248	0.00	29.735 
04:35	39.8	39.8	39.8	78	33.5	2	5	248	0.00	29.735 
04:40	39.9	39.9	39.9	78	33.6	2	5	225	0.00	29.735 
04:45	39.9	39.9	39.9	78	33.6	2	4	248	0.00	29.735 
04:50	39.9	39.9	39.9	78	33.6	2	5	248	0.00	29.735 
04:55	39.9	39.9	39.9	78	33.6	2	7	248	0.00	29.735 
05:00	40.1	40.1	40.1	78	33.8	3	7	248	0.00	29.735 
05:05	40.1	40.1	40.1	79	34.1	2	5	248	0.00	29.735 
05:10	40.1	40.1	40.1	80	34.4	2	4	248	0.00	29.735 
05:15	40.1	40.1	40.1	80	34.4	1	4	248	0.00	29.734 
05:20	40.1	40.1	40.1	81	34.7	1	4	248	0.00	29.734 
05:25	40.1	40.1	40.1	81	34.7	2	5	248	0.00	29.734 
05:30	40.2	40.2	40.2	80	34.5	3	7	248	0.00	29.733 
05:35	40.2	37.5	40.2	79	34.2	4	7	248	0.00	29.733 
05:40	40.2	36.7	40.2	78	33.9	5	15	270	0.00	29.733 
05:45	40.1	37.4	40.1	77	33.5	4	10	248	0.00	29.733 
05:50	40.1	36.6	40.1	76	33.2	5	12	248	0.00	29.733 
05:55	39.9	37.2	39.9	76	33.0	4	7	270	0.00	29.733 
06:00	39.8	37.1	39.8	77	33.2	4	11	270	0.00	29.736 
06:05	39.6	36.9	39.6	76	32.7	4	11	248	0.00	29.736 
06:10	39.8	37.1	39.8	75	32.5	4	9	248	0.00	29.736 
06:15	39.8	37.1	39.8	75	32.5	4	7	248	0.00	29.742 
06:20	39.9	39.9	39.9	75	32.6	3	7	248	0.00	29.742 
06:25	39.8	39.8	39.8	76	32.9	2	6	248	0.00	29.742 
06:30	39.8	39.8	39.8	76	32.9	3	9	248	0.00	29.743 
06:35	39.8	37.1	39.8	75	32.5	4	9	248	0.00	29.743 
06:40	39.9	37.2	39.9	74	32.3	4	9	248	0.00	29.743 
06:45	40.1	40.1	40.1	75	32.8	3	6	270	0.00	29.747 
06:50	40.1	37.4	40.1	74	32.5	4	10	248	0.00	29.747 
06:55	40.1	37.4	40.1	73	32.2	4	10	270	0.00	29.747 
07:00	40.1	40.1	40.1	73	32.2	3	7	270	0.00	29.747 
07:05	40.1	37.4	40.1	73	32.2	4	10	248	0.00	29.747 
07:10	40.1	36.6	40.1	74	32.5	5	11	248	0.00	29.747 
07:15	40.1	40.1	40.1	74	32.5	3	7	248	0.00	29.756 
07:20	39.9	39.9	39.9	75	32.6	3	7	248	0.00	29.756 
07:25	40.1	40.1	40.1	75	32.8	3	5	248	0.00	29.756 
07:30	39.9	39.9	39.9	76	33.0	3	5	248	0.00	29.761 
07:35	39.9	37.2	39.9	76	33.0	4	6	248	0.00	29.761 
07:40	39.9	37.2	39.9	76	33.0	4	10	248	0.00	29.761 
07:45	39.8	37.1	39.8	76	32.9	4	6	270	0.00	29.758 
07:50	39.8	37.1	39.8	76	32.9	4	10	270	0.00	29.758 
07:55	39.6	39.6	39.6	77	33.0	3	6	270	0.00	29.758 
08:00	39.6	39.6	39.6	77	33.0	3	7	248	0.00	29.761 
08:05	39.6	39.6	39.6	76	32.7	3	7	248	0.00	29.761 
08:10	39.6	39.6	39.6	77	33.0	3	7	248	0.00	29.761 
08:15	39.6	39.6	39.6	77	33.0	3	6	248	0.00	29.771 
08:20	39.6	39.6	39.6	77	33.0	2	5	248	0.00	29.771 
08:25	39.6	39.6	39.6	76	32.7	3	5	248	0.00	29.771 
08:30	39.6	36.9	39.6	76	32.7	4	6	270	0.00	29.773 
08:35	39.6	39.6	39.6	76	32.7	3	6	248	0.00	29.773 
08:40	39.8	36.2	39.8	75	32.5	5	10	270	0.00	29.773 
08:45	39.9	37.2	39.9	75	32.6	4	7	248	0.00	29.773 
08:50	40.1	40.1	40.1	75	32.8	3	6	248	0.00	29.773 
08:55	40.2	40.2	40.2	76	33.3	3	6	248	0.00	29.773 
09:00	40.2	37.5	40.2	75	32.9	4	12	248	0.00	29.773 
09:05	40.3	37.7	40.3	74	32.7	4	10	270	0.00	29.773 
09:10	40.5	36.4	40.5	72	32.2	6	11	270	0.00	29.773 
09:15	40.6	38.0	40.6	72	32.3	4	7	248	0.00	29.783 
09:20	40.8	36.7	40.8	71	32.1	6	13	248	0.00	29.783 
09:25	40.9	37.5	40.9	69	31.5	5	12	248	0.00	29.783 
09:30	41.1	37.8	41.1	67	31.0	5	9	270	0.00	29.790 
09:35	41.1	37.1	41.1	66	30.6	6	12	270	0.00	29.790 
09:40	41.2	37.9	41.2	67	31.1	5	11	270	0.00	29.790 
09:45	41.5	38.2	41.5	65	30.6	5	11	270	0.00	29.787 
09:50	41.8	37.9	41.8	65	30.9	6	11	270	0.00	29.787 
09:55	41.8	38.6	41.8	65	30.9	5	10	270	0.00	29.787 
10:00	41.5	38.2	41.5	66	31.0	5	15	270	0.00	29.790 
10:05	41.5	38.2	41.5	66	31.0	5	12	270	0.00	29.790 
10:10	41.5	38.2	41.5	66	31.0	5	11	270	0.00	29.790 
10:15	41.9	38.0	41.9	64	30.6	6	13	270	0.00	29.787 
10:20	42.1	39.7	42.1	64	30.8	4	12	248	0.00	29.787 
10:25	42.2	39.9	42.2	64	30.9	4	8	270	0.00	29.787 
10:30	42.6	39.5	42.6	62	30.5	5	12	248	0.00	29.788 
10:35	42.8	39.8	42.8	62	30.7	5	9	270	0.00	29.788 
10:40	42.6	39.5	42.6	62	30.5	5	14	270	0.00	29.788 
10:45	42.9	42.9	42.9	64	31.6	3	7	248	0.00	29.798 
10:50	43.6	41.5	43.6	63	31.8	4	10	270	0.00	29.798 
10:55	43.6	40.7	43.6	60	30.6	5	11	248	0.00	29.798 
11:00	43.5	39.9	43.5	60	30.5	6	14	270	0.00	29.797 
11:05	43.5	40.6	43.5	61	31.0	5	12	270	0.00	29.797 
11:10	43.9	40.4	43.9	61	31.3	6	14	270	0.00	29.797 
11:15	44.2	41.4	44.2	61	31.6	5	11	248	0.00	29.798 
11:20	44.3	41.5	44.3	61	31.7	5	11	270	0.00	29.798 
11:25	43.6	40.0	43.6	59	30.2	6	12	270	0.00	29.798 
11:30	44.2	41.4	44.2	60	31.2	5	11	270	0.00	29.800 
11:35	44.9	43.0	44.9	61	32.3	4	13	248	0.00	29.800 
11:40	44.8	41.5	44.8	59	31.4	6	11	270	0.00	29.800 
11:45	44.8	41.5	44.8	59	31.4	6	13	270	0.00	29.792 
11:50	44.9	42.2	44.9	61	32.3	5	11	270	0.00	29.792 
11:55	45.4	42.8	45.4	61	32.7	5	9	270	0.00	29.792 
12:00	45.8	43.3	45.8	58	31.9	5	13	270	0.00	29.792 
12:05	46.0	43.5	46.0	59	32.5	5	15	270	0.00	29.792 
12:10	46.5	44.8	46.5	58	32.5	4	9	270	0.00	29.792 
12:15	47.1	45.5	47.1	56	32.2	4	8	248	0.00	29.789 
12:20	47.1	45.5	47.1	56	32.2	4	9	270	0.00	29.789 
12:25	47.0	44.7	47.0	58	33.0	5	9	270	0.00	29.789 
12:30	46.8	45.2	46.8	57	32.4	4	9	270	0.00	29.792 
12:35	47.3	45.0	47.3	57	32.8	5	13	248	0.00	29.792 
12:40	47.0	44.1	47.0	55	31.7	6	11	270	0.00	29.792 
12:45	47.1	44.8	47.1	56	32.2	5	12	270	0.00	29.789 
12:50	47.0	44.1	47.0	56	32.1	6	13	270	0.00	29.789 
12:55	47.6	45.4	47.6	56	32.7	5	10	270	0.00	29.789 
13:00	47.4	45.2	47.4	54	31.6	5	11	270	0.00	29.787 
13:05	47.1	44.8	47.1	55	31.8	5	13	270	0.00	29.787 
13:10	47.1	44.2	47.1	56	32.2	6	13	270	0.00	29.787 
13:15	47.7	44.9	47.7	55	32.3	6	10	270	0.00	29.785 
13:20	48.0	44.8	48.0	52	31.2	7	14	270	0.00	29.785 
13:25	48.5	45.9	48.5	52	31.7	6	12	270	0.00	29.785 
13:30	48.6	46.0	48.6	53	32.3	6	12	270	0.00	29.782 
13:35	48.8	45.7	48.8	50	31.0	7	14	248	0.00	29.782 
13:40	48.5	45.9	48.5	51	31.2	6	11	270	0.00	29.782 
13:45	48.6	46.0	48.6	51	31.3	6	11	270	0.00	29.780 
13:50	48.8	46.2	48.8	49	30.5	6	12	270	0.00	29.780 
13:55	48.8	46.2	48.8	50	31.0	6	12	270	0.00	29.780 
14:00	49.2	47.3	49.2	50	31.4	5	17	270	0.00	29.783 
14:05	49.4	47.5	49.4	53	33.0	5	10	248	0.00	29.783 
14:10	49.6	47.7	49.6	49	31.2	5	10	270	0.00	29.783 
14:15	49.5	47.1	49.5	49	31.1	6	14	270	0.00	29.780 
14:20	49.9	47.5	49.9	50	32.0	6	12	270	0.00	29.780 
14:25	49.8	47.4	49.8	46	29.9	6	12	270	0.00	29.780 
14:30	50.4	50.4	50.4	48	31.5	4	10	270	0.00	29.779 
14:35	50.8	50.8	50.8	48	31.8	5	11	270	0.00	29.779 
14:40	51.1	51.1	51.1	46	31.0	5	9	270	0.00	29.779 
14:45	51.4	51.4	51.4	48	32.4	4	7	270	0.00	29.779 
14:50	51.4	51.4	51.4	44	30.2	5	11	270	0.00	29.779 
14:55	51.6	51.6	51.6	45	31.0	5	13	270	0.00	29.779 
15:00	51.4	51.4	51.4	42	29.1	7	13	270	0.00	29.777 
15:05	51.6	51.6	51.6	42	29.3	6	13	270	0.00	29.777 
15:10	51.9	51.9	51.9	41	28.9	5	11	270	0.00	29.777 
15:15	51.7	51.7	51.7	44	30.5	6	11	270	0.00	29.775 
15:20	52.2	52.2	52.2	46	32.1	4	10	270	0.00	29.775 
15:25	52.2	52.2	52.2	43	30.4	6	11	270	0.00	29.775 
15:30	52.2	52.2	52.2	44	31.0	6	12	270	0.00	29.766 
15:35	52.2	52.2	52.2	43	30.4	5	11	270	0.00	29.766 
15:40	52.5	52.5	52.5	45	31.8	4	9	270	0.00	29.766 
15:45	53.1	53.1	53.1	45	32.3	4	9	270	0.00	29.766 
15:50	53.1	53.1	53.1	45	32.3	5	10	270	0.00	29.766 
15:55	53.3	53.3	53.3	43	31.4	5	12	270	0.00	29.766 
16:00	53.6	53.6	53.6	45	32.8	5	11	248	0.00	29.760 
16:05	53.6	53.6	53.6	44	32.2	4	11	248	0.00	29.760 
16:10	53.8	53.8	53.8	43	31.8	5	11	270	0.00	29.760 
16:15	53.1	53.1	53.1	43	31.2	5	10	270	0.00	29.763 
16:20	53.1	53.1	53.1	44	31.8	4	9	270	0.00	29.763 
16:25	53.1	53.1	53.1	42	30.6	4	9	270	0.00	29.763 
16:30	53.1	53.1	53.1	42	30.6	5	9	270	0.00	29.762 
16:35	53.2	53.2	53.2	39	28.9	6	12	270	0.00	29.762 
16:40	53.3	53.3	53.3	42	30.8	5	11	270	0.00	29.762 
16:45	53.5	53.5	53.5	43	31.6	4	7	248	0.00	29.765 
16:50	53.5	53.5	53.5	41	30.4	4	9	270	0.00	29.765 
16:55	53.3	53.3	53.3	40	29.6	6	11	270	0.00	29.765 
17:00	53.1	53.1	53.1	42	30.6	6	11	270	0.00	29.770 
17:05	53.5	53.5	53.5	43	31.6	4	7	270	0.00	29.770 
17:10	53.6	53.6	53.6	42	31.1	4	11	270	0.00	29.770 
17:15	53.5	53.5	53.5	41	30.4	5	14	248	0.00	29.774 
17:20	53.3	53.3	53.3	42	30.8	5	12	270	0.00	29.774 
17:25	53.6	53.6	53.6	40	29.9	5	8	270	0.00	29.774 
17:30	54.1	54.1	54.1	41	30.9	5	11	270	0.00	29.776 
17:35	54.2	54.2	54.2	39	29.8	5	9	270	0.00	29.776 
17:40	54.4	54.4	54.4	41	31.2	4	8	270	0.00	29.776 
17:45	54.4	54.4	54.4	39	30.0	5	9	270	0.00	29.787 
17:50	54.4	54.4	54.4	38	29.3	5	12	248	0.00	29.787 
17:55	54.7	54.7	54.7	39	30.2	3	6	248	0.00	29.787 
18:00	54.8	54.8	54.8	39	30.3	4	10	270	0.00	29.780 
18:05	54.7	54.7	54.7	35	27.6	5	9	270	0.00	29.780 
18:10	54.7	54.7	54.7	39	30.2	4	9	270	0.00	29.780 
18:15	54.5	54.5	54.5	40	30.7	4	10	270	0.00	29.790 
18:20	54.2	54.2	54.2	40	30.4	4	9	248	0.00	29.790 
18:25	53.6	53.6	53.6	40	29.9	5	13	248	0.00	29.790 
18:30	53.3	53.3	53.3	41	30.2	3	6	248	0.00	29.791 
18:35	53.3	53.3	53.3	41	30.2	4	7	248	0.00	29.791 
18:40	53.5	53.5	53.5	42	31.0	4	10	270	0.00	29.791 
18:45	53.2	53.2	53.2	41	30.1	4	9	270	0.00	29.801 
18:50	52.9	52.9	52.9	41	29.8	5	8	270	0.00	29.801 
18:55	53.1	53.1	53.1	42	30.6	4	10	248	0.00	29.801 
19:00	52.9	52.9	52.9	41	29.8	4	7	248	0.00	29.809 
19:05	52.8	52.8	52.8	41	29.8	3	7	270	0.00	29.809 
19:10	52.5	52.5	52.5	41	29.5	4	8	270	0.00	29.809 
19:15	52.3	52.3	52.3	42	29.9	4	7	248	0.00	29.811 
19:20	52.2	52.2	52.2	42	29.8	4	10	270	0.00	29.811 
19:25	51.9	51.9	51.9	43	30.1	4	9	270	0.00	29.811 
19:30	51.7	51.7	51.7	43	29.9	3	9	270	0.00	29.822 
19:35	51.7	51.7	51.7	44	30.5	3	6	248	0.00	29.822 
19:40	51.7	51.7	51.7	45	31.1	2	6	248	0.00	29.822 
19:45	51.6	51.6	51.6	45	31.0	3	5	270	0.00	29.824 
19:50	51.6	51.6	51.6	45	31.0	2	5	270	0.00	29.824 
19:55	51.4	51.4	51.4	46	31.3	1	3	270	0.00	29.824 
20:00	51.4	51.4	51.4	46	31.3	3	5	248	0.00	29.827 
20:05	51.3	51.3	51.3	47	31.8	3	6	248	0.00	29.827 
20:10	51.3	51.3	51.3	48	32.3	3	6	270	0.00	29.827 
20:15	51.1	51.1	51.1	48	32.1	3	5	270	0.00	29.825 
20:20	51.0	51.0	51.0	49	32.5	2	4	270	0.00	29.825 
20:25	50.8	50.8	50.8	49	32.3	2	5	270	0.00	29.825 
20:30	50.7	50.7	50.7	49	32.2	2	5	270	0.00	29.826 
20:35	50.5	50.5	50.5	50	32.6	1	4	248	0.00	29.826 
20:40	50.5	50.5	50.5	50	32.6	1	4	248	0.00	29.826 
20:45	50.4	50.4	50.4	50	32.5	1	3	248	0.00	29.827 
20:50	50.2	50.2	50.2	50	32.3	1	3	248	0.00	29.827 
20:55	50.1	50.1	50.1	51	32.7	1	3	248	0.00	29.827 
21:00	50.1	50.1	50.1	51	32.7	2	3	248	0.00	29.842 
21:05	50.1	50.1	50.1	51	32.7	2	4	248	0.00	29.842 
21:10	50.1	50.1	50.1	50	32.2	1	3	248	0.00	29.842 
21:15	50.1	50.1	50.1	51	32.7	1	3	248	0.00	29.854 
21:20	50.1	50.1	50.1	51	32.7	1	3	248	0.00	29.854 
21:25	50.1	50.1	50.1	51	32.7	1	3	248	0.00	29.854 
21:30	50.1	50.1	50.1	51	32.7	0	2	248	0.00	29.856 
21:35	49.9	49.9	49.9	52	33.0	0	2	248	0.00	29.856 
21:40	49.8	49.8	49.8	52	32.9	1	2	248	0.00	29.856 
21:45	49.6	49.6	49.6	52	32.7	1	3	248	0.00	29.858 
21:50	49.6	49.6	49.6	52	32.7	0	2	248	0.00	29.858 
21:55	49.4	49.4	49.4	53	33.0	0	2	248	0.00	29.858 
22:00	49.2	49.2	49.2	53	32.8	0	1	248	0.00	29.861 
22:05	48.9	48.9	48.9	54	33.0	0	0	---	0.00	29.861 
22:10	48.8	48.8	48.8	54	32.9	0	0	---	0.00	29.861 
22:15	48.6	48.6	48.6	54	32.7	0	0	---	0.00	29.859 
22:20	48.3	48.3	48.3	55	32.9	0	0	---	0.00	29.859 
22:25	48.2	48.2	48.2	56	33.2	0	0	---	0.00	29.859 
22:30	48.0	48.0	48.0	56	33.1	0	0	---	0.00	29.869 
22:35	47.9	47.9	47.9	57	33.4	0	0	---	0.00	29.869 
22:40	47.7	47.7	47.7	57	33.2	0	0	---	0.00	29.869 
22:45	47.6	47.6	47.6	57	33.1	0	0	---	0.00	29.871 
22:50	47.4	47.4	47.4	58	33.4	0	0	---	0.00	29.871 
22:55	47.4	47.4	47.4	58	33.4	0	0	---	0.00	29.871 
23:00	47.4	47.4	47.4	58	33.4	0	0	---	0.00	29.873 
23:05	47.3	47.3	47.3	59	33.7	0	1	248	0.00	29.873 
23:10	47.3	47.3	47.3	58	33.3	0	2	248	0.00	29.873 
23:15	47.4	47.4	47.4	58	33.4	0	0	---	0.00	29.872 
23:20	47.4	47.4	47.4	57	32.9	0	0	---	0.00	29.872 
23:25	47.4	47.4	47.4	57	32.9	0	1	248	0.00	29.872 
23:30	47.4	47.4	47.4	57	32.9	0	0	---	0.00	29.875 
23:35	47.4	47.4	47.4	57	32.9	0	1	248	0.00	29.875 
23:40	47.4	47.4	47.4	57	32.9	0	0	---	0.00	29.875 
23:45	47.4	47.4	47.4	57	32.9	0	0	---	0.00	29.875 
23:50	47.4	47.4	47.4	57	32.9	0	0	---	0.00	29.875 
23:55	47.4	47.4	47.4	57	32.9	0	1	248	0.00	29.875 

CoCoRaHS
IN-AL-39
A2 Web Hosting
Creative Commons License
GoDaddy
search engine by freefind advanced

loaded 2018-11-20 06:46:37 • last modified 2010-11-18 10:43:29
Privacy PolicyDisclaimer
• wx.awcolley.com is powered by PmWiki v.2002016 •
• all content (unless otherwise noted) © 2018 A W Colley